Terminal Aerodrome Forecast
Issued by NWS

Home | Current Version | Previous Version | Text Only | Print | Product List | Glossary On
Versions: 1 2 3 4 5 6 7 8 9 10 11 12 13 14
000
FTUS43 KFGF 291900 AAA
TAFBJI
TAF AMD
KBJI 291913Z 2919/3018 31025G35KT P6SM SCT035
      TEMPO 2919/2922 BKN035
     FM292200 30017G24KT P6SM SCT045
     FM300000 30008KT P6SM SCT035=

USA.gov is the U.S. government's official web portal to all federal, state and local government web resources and services.